createdAt,value
2024-01-20T00:03:05.503Z,1024.93
2024-01-20T00:08:06.562Z,1024.91
2024-01-20T00:13:07.753Z,1024.96
2024-01-20T00:18:08.895Z,1024.99
2024-01-20T00:23:10.042Z,1024.93
2024-01-20T00:28:11.358Z,1025.06
2024-01-20T00:33:12.414Z,1025.11
2024-01-20T00:38:14.569Z,1025.10
2024-01-20T00:43:13.911Z,1025.13
2024-01-20T00:48:15.008Z,1025.07
2024-01-20T00:53:15.995Z,1025.07
2024-01-20T00:58:16.997Z,1025.13
2024-01-20T01:03:17.980Z,1025.03
2024-01-20T01:08:19.043Z,1025.05
2024-01-20T01:13:20.148Z,1025.00
2024-01-20T01:18:21.177Z,1025.02
2024-01-20T01:23:22.147Z,1025.04
2024-01-20T01:28:23.477Z,1025.02
2024-01-20T01:33:24.531Z,1024.98
2024-01-20T01:38:25.486Z,1024.92
2024-01-20T01:43:26.499Z,1024.98
2024-01-20T01:48:27.502Z,1024.97
2024-01-20T01:53:28.450Z,1024.96
2024-01-20T01:58:29.495Z,1024.98
2024-01-20T02:03:30.667Z,1025.05
2024-01-20T02:08:31.703Z,1025.01
2024-01-20T02:13:32.661Z,1024.98
2024-01-20T02:18:33.719Z,1025.03
2024-01-20T02:23:34.631Z,1025.01
2024-01-20T02:28:35.644Z,1025.04
2024-01-20T02:33:36.849Z,1025.07
2024-01-20T02:38:41.832Z,1025.13
2024-01-20T02:43:37.778Z,1025.05
2024-01-20T02:48:38.853Z,1025.11
2024-01-20T02:53:39.844Z,1025.16
2024-01-20T02:58:40.782Z,1025.15
2024-01-20T03:03:41.794Z,1025.10
2024-01-20T03:08:42.892Z,1025.05
2024-01-20T03:13:43.804Z,1025.04
2024-01-20T03:18:45.235Z,1025.02
2024-01-20T03:23:47.191Z,1025.07
2024-01-20T03:28:47.157Z,1025.14
2024-01-20T03:33:46.220Z,1025.21
2024-01-20T03:38:47.162Z,1025.25
2024-01-20T03:43:48.168Z,1025.39
2024-01-20T03:48:50.214Z,1025.43
2024-01-20T03:53:49.198Z,1025.40
2024-01-20T03:58:51.275Z,1025.43
2024-01-20T04:03:50.292Z,1025.45
2024-01-20T04:08:51.306Z,1025.47
2024-01-20T04:13:52.237Z,1025.54
2024-01-20T04:18:53.332Z,1025.61
2024-01-20T04:23:54.550Z,1025.60
2024-01-20T04:28:55.487Z,1025.69
2024-01-20T04:33:57.536Z,1025.78
2024-01-20T04:38:56.582Z,1025.67
2024-01-20T04:43:58.532Z,1025.88
2024-01-20T04:48:59.676Z,1025.96
2024-01-20T04:53:58.637Z,1025.96
2024-01-20T04:58:59.582Z,1026.08
2024-01-20T05:04:01.733Z,1026.13
2024-01-20T05:09:00.746Z,1026.21
2024-01-20T05:14:01.682Z,1026.32
2024-01-20T05:19:01.871Z,1026.30
2024-01-20T05:24:02.879Z,1026.39
2024-01-20T05:29:05.021Z,1026.31
2024-01-20T05:34:04.398Z,1026.36
2024-01-20T05:39:03.599Z,1026.56
2024-01-20T05:44:04.543Z,1026.61
2024-01-20T05:49:05.661Z,1026.60
2024-01-20T05:54:06.709Z,1026.60
2024-01-20T05:59:07.685Z,1026.78
2024-01-20T06:04:08.800Z,1026.80
2024-01-20T06:09:09.770Z,1026.90
2024-01-20T06:14:10.707Z,1026.92
2024-01-20T06:19:11.750Z,1027.04
2024-01-20T06:24:12.869Z,1027.00
2024-01-20T06:29:14.943Z,1026.99
2024-01-20T06:34:13.845Z,1027.02
2024-01-20T06:39:14.803Z,1027.09
2024-01-20T06:44:15.721Z,1027.13
2024-01-20T06:49:16.753Z,1027.15
2024-01-20T06:54:17.863Z,1027.16
2024-01-20T06:59:18.907Z,1027.20
2024-01-20T07:04:19.888Z,1027.15
2024-01-20T07:09:19.816Z,1027.25
2024-01-20T07:14:20.860Z,1027.25
2024-01-20T07:19:22.818Z,1027.29
2024-01-20T07:24:21.802Z,1027.27
2024-01-20T07:29:22.734Z,1027.40
2024-01-20T07:34:23.885Z,1027.35
2024-01-20T07:39:24.963Z,1027.32
2024-01-20T07:44:26.043Z,1027.35
2024-01-20T07:49:27.040Z,1027.27
2024-01-20T07:54:28.043Z,1027.47
2024-01-20T07:59:28.962Z,1027.49
2024-01-20T08:04:30.011Z,1027.55
2024-01-20T08:09:31.011Z,1027.63
2024-01-20T08:14:31.980Z,1027.70
2024-01-20T08:19:32.099Z,1027.72
2024-01-20T08:24:33.247Z,1027.82
2024-01-20T08:29:34.236Z,1027.84
2024-01-20T08:34:35.273Z,1027.79
2024-01-20T08:39:36.358Z,1027.84
2024-01-20T08:44:37.501Z,1027.76
2024-01-20T08:49:38.824Z,1027.76
2024-01-20T08:54:39.823Z,1027.79
2024-01-20T08:59:40.756Z,1027.79
2024-01-20T09:04:41.791Z,1027.84
2024-01-20T09:09:42.932Z,1027.88
2024-01-20T09:14:44.973Z,1027.89
2024-01-20T09:19:44.085Z,1027.97
2024-01-20T09:24:45.095Z,1028.09
2024-01-20T09:29:47.165Z,1028.15
2024-01-20T09:34:46.165Z,1028.18
2024-01-20T09:39:47.233Z,1028.14
2024-01-20T09:44:48.219Z,1028.08
2024-01-20T09:49:49.306Z,1028.13
2024-01-20T09:54:50.360Z,1028.16
2024-01-20T09:59:51.345Z,1028.18
2024-01-20T10:04:52.405Z,1028.09
2024-01-20T10:09:53.354Z,1028.19
2024-01-20T10:14:55.320Z,1028.11
2024-01-20T10:19:54.340Z,1028.03
2024-01-20T10:24:55.488Z,1027.95
2024-01-20T10:29:56.486Z,1028.01
2024-01-20T10:35:00.602Z,1028.01
2024-01-20T10:39:58.709Z,1027.98
2024-01-20T10:44:57.772Z,1028.09
2024-01-20T10:49:59.774Z,1028.03
2024-01-20T10:54:59.695Z,1027.99
2024-01-20T10:59:59.682Z,1027.90
2024-01-20T11:04:58.570Z,1027.92
2024-01-20T11:09:59.480Z,1027.87
2024-01-20T11:15:00.590Z,1027.79
2024-01-20T11:20:01.651Z,1027.81
2024-01-20T11:25:02.604Z,1027.76
2024-01-20T11:30:02.596Z,1027.82
2024-01-20T11:35:03.535Z,1027.79
2024-01-20T11:40:04.429Z,1027.72
2024-01-20T11:45:05.503Z,1027.72
2024-01-20T11:50:06.511Z,1027.72
2024-01-20T11:55:07.604Z,1027.72
2024-01-20T12:00:09.490Z,1027.61
2024-01-20T12:05:15.919Z,1027.65
2024-01-20T12:10:08.978Z,1027.57
2024-01-20T12:15:09.977Z,1027.57
2024-01-20T12:20:10.953Z,1027.45
2024-01-20T12:25:13.447Z,1027.36
2024-01-20T12:30:12.996Z,1027.23
2024-01-20T12:35:13.977Z,1027.19
2024-01-20T12:40:15.106Z,1027.11
2024-01-20T12:45:16.133Z,1027.13
2024-01-20T12:50:17.148Z,1027.11
2024-01-20T12:55:18.102Z,1027.23
2024-01-20T13:00:19.212Z,1027.17
2024-01-20T13:05:20.374Z,1027.13
2024-01-20T13:10:21.480Z,1027.02
2024-01-20T13:15:22.765Z,1026.96
2024-01-20T13:20:23.786Z,1026.84
2024-01-20T13:25:26.049Z,1026.88
2024-01-20T13:30:25.589Z,1026.84
2024-01-20T13:35:26.602Z,1026.79
2024-01-20T13:40:27.666Z,1026.83
2024-01-20T13:45:28.677Z,1026.71
2024-01-20T13:50:29.710Z,1026.68
2024-01-20T13:55:30.716Z,1026.67
2024-01-20T14:00:31.804Z,1026.69
2024-01-20T14:05:32.759Z,1026.74
2024-01-20T14:10:33.786Z,1026.69
2024-01-20T14:15:34.815Z,1026.68
2024-01-20T14:20:35.885Z,1026.70
2024-01-20T14:25:36.952Z,1026.64
2024-01-20T14:30:38.167Z,1026.72
2024-01-20T14:35:39.180Z,1026.67
2024-01-20T14:40:41.108Z,1026.73
2024-01-20T14:45:40.355Z,1026.77
2024-01-20T14:50:41.401Z,1026.82
2024-01-20T14:55:43.323Z,1026.78
2024-01-20T15:00:43.173Z,1026.86
2024-01-20T15:05:42.838Z,1026.88
2024-01-20T15:10:42.428Z,1027.00
2024-01-20T15:15:43.849Z,1027.04
2024-01-20T15:20:44.870Z,1027.05
2024-01-20T15:25:45.839Z,1027.10
2024-01-20T15:30:46.931Z,1027.12
2024-01-20T15:35:48.887Z,1027.17
2024-01-20T15:40:49.999Z,1027.22
2024-01-20T15:45:49.162Z,1027.11
2024-01-20T15:50:50.100Z,1027.14
2024-01-20T15:55:51.119Z,1027.08
2024-01-20T16:00:51.362Z,1027.03
2024-01-20T16:05:52.462Z,1027.02
2024-01-20T16:10:53.475Z,1027.07
2024-01-20T16:15:54.477Z,1026.98
2024-01-20T16:20:55.448Z,1027.03
2024-01-20T16:25:56.462Z,1027.14
2024-01-20T16:30:57.671Z,1027.17
2024-01-20T16:35:58.680Z,1027.26
2024-01-20T16:40:59.673Z,1027.22
2024-01-20T16:46:00.689Z,1027.14
2024-01-20T16:51:01.855Z,1027.09
2024-01-20T16:56:03.824Z,1027.06
2024-01-20T17:01:03.016Z,1027.03
2024-01-20T17:06:04.055Z,1027.05
2024-01-20T17:11:04.064Z,1027.11
2024-01-20T17:16:05.108Z,1027.25
2024-01-20T17:21:06.114Z,1027.29
2024-01-20T17:26:07.120Z,1027.47
2024-01-20T17:31:08.068Z,1027.45
2024-01-20T17:36:09.272Z,1027.47
2024-01-20T17:41:10.217Z,1027.44
2024-01-20T17:46:11.229Z,1027.53
2024-01-20T17:51:12.149Z,1027.41
2024-01-20T17:56:13.141Z,1027.41
2024-01-20T18:01:19.298Z,1027.34
2024-01-20T18:06:14.454Z,1027.31
2024-01-20T18:11:15.504Z,1027.34
2024-01-20T18:16:16.479Z,1027.29
2024-01-20T18:21:17.568Z,1027.33
2024-01-20T18:26:18.592Z,1027.32
2024-01-20T18:31:19.794Z,1027.25
2024-01-20T18:36:21.749Z,1027.30
2024-01-20T18:41:20.736Z,1027.37
2024-01-20T18:46:21.758Z,1027.33
2024-01-20T18:51:22.838Z,1027.30
2024-01-20T18:56:23.854Z,1027.30
2024-01-20T19:01:24.902Z,1027.43
2024-01-20T19:06:25.921Z,1027.51
2024-01-20T19:11:26.921Z,1027.46
2024-01-20T19:16:27.880Z,1027.54
2024-01-20T19:21:29.021Z,1027.47
2024-01-20T19:26:29.993Z,1027.61
2024-01-20T19:31:31.058Z,1027.53
2024-01-20T19:36:32.181Z,1027.53
2024-01-20T19:41:33.202Z,1027.67
2024-01-20T19:46:34.256Z,1027.63
2024-01-20T19:51:35.343Z,1027.70
2024-01-20T19:56:37.253Z,1027.67
2024-01-20T20:01:36.298Z,1027.62
2024-01-20T20:06:38.293Z,1027.53
2024-01-20T20:11:37.328Z,1027.51
2024-01-20T20:16:38.351Z,1027.58
2024-01-20T20:21:39.657Z,1027.48
2024-01-20T20:26:40.614Z,1027.46
2024-01-20T20:31:40.660Z,1027.38
2024-01-20T20:36:41.702Z,1027.32
2024-01-20T20:41:42.586Z,1027.26
2024-01-20T20:46:43.635Z,1027.27
2024-01-20T20:51:45.134Z,1027.14
2024-01-20T20:56:46.207Z,1027.22
2024-01-20T21:01:47.468Z,1027.15
2024-01-20T21:06:48.542Z,1027.14
2024-01-20T21:11:50.536Z,1027.15
2024-01-20T21:16:49.598Z,1027.22
2024-01-20T21:21:51.744Z,1027.24
2024-01-20T21:26:50.690Z,1027.26
2024-01-20T21:31:50.865Z,1027.27
2024-01-20T21:36:52.010Z,1027.21
2024-01-20T21:41:53.056Z,1027.27
2024-01-20T21:46:53.935Z,1027.28
2024-01-20T21:51:55.223Z,1027.29
2024-01-20T21:56:56.217Z,1027.21
2024-01-20T22:01:57.282Z,1027.10
2024-01-20T22:06:58.362Z,1027.11
2024-01-20T22:11:59.387Z,1027.15
2024-01-20T22:17:00.449Z,1027.12
2024-01-20T22:22:01.415Z,1027.10
2024-01-20T22:27:02.507Z,1027.14
2024-01-20T22:32:03.480Z,1027.19
2024-01-20T22:37:04.539Z,1027.12
2024-01-20T22:42:05.567Z,1027.19
2024-01-20T22:47:06.592Z,1027.19
2024-01-20T22:52:07.569Z,1027.20
2024-01-20T22:57:08.685Z,1027.25
2024-01-20T23:02:09.721Z,1027.21
2024-01-20T23:07:09.696Z,1027.20
2024-01-20T23:12:10.850Z,1027.23
2024-01-20T23:17:12.871Z,1027.22
2024-01-20T23:22:12.770Z,1027.29
2024-01-20T23:27:11.811Z,1027.29
2024-01-20T23:32:12.772Z,1027.35
2024-01-20T23:37:14.711Z,1027.32
2024-01-20T23:42:13.819Z,1027.29
2024-01-20T23:47:14.761Z,1027.32
2024-01-20T23:52:15.782Z,1027.48
2024-01-20T23:57:16.839Z,1027.49
